Time;durP1;ratioP1;P1;durP2;ratioP2;P2;SDS_P1;SDS_P2;PMS_P1;PMS_P2;Temp;Humidity;BMP_temperature;BMP_pressure;BME280_temperature;BME280_humidity;BME280_pressure;Samples;Min_cycle;Max_cycle;Signal;HPM_P1;HPM_P2
2021/12/20 00:02:25;;;;;;;113.53;101.25;;;8.00;97.10;;;;;;5017262;28;20049;-75
2021/12/20 00:04:53;;;;;;;114.30;100.50;;;8.10;97.00;;;;;;5034607;28;20104;-75
2021/12/20 00:07:22;;;;;;;120.05;103.00;;;8.00;97.00;;;;;;5034369;28;20129;-75
2021/12/20 00:09:49;;;;;;;118.88;101.22;;;8.00;96.80;;;;;;5017418;28;20048;-75
2021/12/20 00:12:16;;;;;;;114.78;100.03;;;8.00;96.90;;;;;;5034237;28;20054;-75
2021/12/20 00:14:43;;;;;;;122.75;102.32;;;8.00;96.90;;;;;;5034180;28;20046;-75
2021/12/20 00:17:10;;;;;;;123.38;101.90;;;8.00;96.90;;;;;;5033820;28;20060;-75
2021/12/20 00:19:36;;;;;;;115.57;101.07;;;8.00;96.80;;;;;;5018024;28;20054;-75
2021/12/20 00:22:04;;;;;;;123.65;101.88;;;8.00;96.80;;;;;;5033985;28;20058;-75
2021/12/20 00:24:32;;;;;;;119.35;101.25;;;8.00;96.80;;;;;;5035820;28;20049;-75
2021/12/20 00:27:01;;;;;;;114.20;101.45;;;8.00;96.80;;;;;;5033782;28;20546;-75
2021/12/20 00:29:29;;;;;;;113.85;99.43;;;8.00;96.70;;;;;;5034272;28;20487;-75
2021/12/20 00:31:56;;;;;;;113.07;100.57;;;8.00;96.90;;;;;;5017577;28;20054;-75
2021/12/20 00:34:23;;;;;;;117.80;99.70;;;8.00;96.90;;;;;;5034134;28;20602;-75
2021/12/20 00:36:57;;;;;;;116.10;99.63;;;7.90;96.80;;;;;;5034019;28;20050;-75
2021/12/20 00:42:09;;;;;;;113.10;100.30;;;7.90;97.00;;;;;;5050517;28;20565;-75
2021/12/20 00:44:36;;;;;;;112.70;100.38;;;7.90;97.00;;;;;;5033520;28;20566;-75
2021/12/20 00:47:04;;;;;;;113.47;100.93;;;7.90;96.90;;;;;;5034591;28;20140;-75
2021/12/20 00:49:31;;;;;;;119.45;99.53;;;7.90;96.90;;;;;;5033884;28;20503;-75
2021/12/20 00:51:58;;;;;;;119.03;100.45;;;7.90;96.90;;;;;;5033742;28;20534;-75
2021/12/20 00:54:25;;;;;;;115.88;101.13;;;7.90;97.00;;;;;;5033633;28;20070;-75
2021/12/20 00:56:52;;;;;;;113.97;100.18;;;7.90;97.00;;;;;;5034584;28;20057;-75
2021/12/20 00:59:20;;;;;;;114.50;99.65;;;7.90;97.00;;;;;;5033459;28;20100;-75
2021/12/20 01:01:47;;;;;;;115.93;101.25;;;7.90;96.70;;;;;;5016605;28;20056;-75
2021/12/20 01:04:14;;;;;;;117.97;101.07;;;7.90;96.80;;;;;;5034989;28;20050;-75
2021/12/20 01:06:41;;;;;;;113.05;100.28;;;7.90;96.70;;;;;;5033404;28;20503;-75
2021/12/20 01:09:08;;;;;;;112.75;100.50;;;7.90;96.90;;;;;;5049704;28;20054;-75
2021/12/20 01:11:39;;;;;;;116.53;100.97;;;7.90;97.00;;;;;;5033044;28;20054;-75
2021/12/20 01:14:06;;;;;;;112.57;100.28;;;7.90;97.10;;;;;;5033275;28;20050;-75
2021/12/20 01:16:35;;;;;;;112.85;100.38;;;7.90;97.10;;;;;;5033273;28;20046;-75
2021/12/20 01:19:02;;;;;;;113.47;100.95;;;7.90;97.10;;;;;;5033116;28;20061;-75
2021/12/20 01:21:29;;;;;;;114.53;100.80;;;7.90;97.10;;;;;;5034805;28;20134;-75
2021/12/20 01:23:56;;;;;;;126.05;103.88;;;7.90;97.10;;;;;;5032995;28;20050;-75
2021/12/20 01:26:23;;;;;;;115.97;101.50;;;7.90;97.10;;;;;;5033392;28;20136;-75
2021/12/20 01:28:50;;;;;;;114.97;101.13;;;7.90;97.10;;;;;;5032407;28;20058;-75
2021/12/20 01:31:17;;;;;;;113.47;101.22;;;7.90;97.10;;;;;;5032966;28;20073;-75
2021/12/20 01:33:46;;;;;;;117.22;102.10;;;7.90;97.20;;;;;;5032998;28;20046;-75
2021/12/20 01:36:12;;;;;;;115.45;101.85;;;7.90;97.20;;;;;;5032974;28;20116;-75
2021/12/20 01:38:39;;;;;;;119.07;102.43;;;7.90;97.10;;;;;;5034159;28;20057;-75
2021/12/20 01:41:08;;;;;;;111.63;99.70;;;7.90;97.20;;;;;;5032925;28;20057;-75
2021/12/20 01:43:35;;;;;;;121.18;101.10;;;7.90;97.20;;;;;;5032547;28;20053;-75
2021/12/20 01:46:02;;;;;;;112.60;100.20;;;7.90;97.20;;;;;;5034132;28;20057;-75
2021/12/20 01:48:30;;;;;;;113.43;100.97;;;7.90;96.90;;;;;;5032516;28;20088;-75
2021/12/20 01:53:52;;;;;;;112.25;100.13;;;7.90;97.00;;;;;;5032299;28;20348;-75
2021/12/20 01:56:19;;;;;;;112.45;100.18;;;7.90;97.10;;;;;;5032721;28;20746;-75
2021/12/20 01:58:46;;;;;;;117.97;101.72;;;7.90;96.80;;;;;;5033788;28;20061;-75
2021/12/20 02:01:22;;;;;;;113.43;101.20;;;7.90;96.80;;;;;;5033984;28;20056;-75
2021/12/20 02:03:56;;;;;;;111.82;99.78;;;7.80;96.80;;;;;;5032292;28;20140;-75
2021/12/20 02:06:29;;;;;;;112.78;100.18;;;7.80;96.70;;;;;;5032476;28;20050;-75
2021/12/20 02:08:57;;;;;;;114.43;101.15;;;7.80;96.70;;;;;;5033792;28;20132;-75
2021/12/20 02:11:24;;;;;;;113.85;101.40;;;7.80;96.80;;;;;;5032060;28;20054;-75
2021/12/20 02:13:51;;;;;;;111.82;99.72;;;7.90;96.70;;;;;;5032317;28;20056;-74
2021/12/20 02:16:19;;;;;;;112.45;100.25;;;7.80;96.60;;;;;;5032212;28;20145;-75
2021/12/20 02:18:46;;;;;;;116.65;101.50;;;7.80;96.50;;;;;;5031591;28;20466;-75
2021/12/20 02:21:15;;;;;;;112.53;100.18;;;7.80;96.30;;;;;;5031783;28;20046;-75
2021/12/20 02:23:42;;;;;;;112.07;100.03;;;7.70;96.30;;;;;;5030983;28;20081;-75
2021/12/20 02:26:11;;;;;;;114.10;102.05;;;7.70;96.30;;;;;;5030571;28;20136;-75
2021/12/20 02:28:43;;;;;;;114.30;101.32;;;7.70;96.30;;;;;;5031893;28;20042;-75
2021/12/20 02:37:01;;;;;;;113.28;99.47;;;7.60;96.40;;;;;;5033357;28;20139;-75
2021/12/20 02:39:29;;;;;;;111.65;99.95;;;7.60;96.40;;;;;;5032148;28;20053;-75
2021/12/20 02:41:55;;;;;;;111.05;99.47;;;7.60;96.40;;;;;;5033631;28;20713;-75
2021/12/20 02:44:25;;;;;;;117.53;100.85;;;7.60;96.40;;;;;;5033419;28;20080;-75
2021/12/20 02:47:05;;;;;;;110.82;99.15;;;7.60;96.40;;;;;;5031769;28;20053;-75
2021/12/20 02:49:33;;;;;;;112.07;99.85;;;7.60;96.40;;;;;;5033209;28;20068;-75
2021/12/20 02:52:03;;;;;;;113.40;101.07;;;7.60;96.40;;;;;;5032037;28;20531;-74
2021/12/20 02:54:30;;;;;;;112.85;100.60;;;7.60;96.30;;;;;;5031926;28;20048;-74
2021/12/20 02:56:58;;;;;;;112.57;100.20;;;7.50;96.30;;;;;;5031526;28;20124;-74
2021/12/20 02:59:25;;;;;;;110.28;98.45;;;7.50;96.40;;;;;;5031764;28;20053;-75
2021/12/20 03:01:55;;;;;;;112.00;100.40;;;7.50;96.40;;;;;;5033385;28;20050;-74
2021/12/20 03:04:23;;;;;;;111.38;99.25;;;7.50;96.40;;;;;;5031620;28;20062;-75
2021/12/20 03:06:53;;;;;;;113.07;100.90;;;7.50;96.40;;;;;;5031562;28;20108;-75
2021/12/20 03:09:29;;;;;;;112.40;99.63;;;7.50;96.40;;;;;;5032789;28;20132;-75
2021/12/20 03:11:59;;;;;;;111.10;99.15;;;7.50;96.40;;;;;;5033051;28;20508;-75
2021/12/20 03:14:30;;;;;;;111.07;99.13;;;7.50;96.50;;;;;;5031504;28;20046;-75
2021/12/20 03:16:57;;;;;;;112.15;100.30;;;7.50;96.50;;;;;;5031236;28;20113;-75
2021/12/20 03:19:25;;;;;;;110.40;98.80;;;7.50;96.50;;;;;;5032930;28;20058;-75
2021/12/20 03:21:52;;;;;;;110.82;98.90;;;7.50;96.50;;;;;;5032853;28;20141;-75
2021/12/20 03:24:19;;;;;;;112.05;100.07;;;7.60;96.40;;;;;;5032970;28;20077;-75
2021/12/20 03:26:47;;;;;;;112.47;99.68;;;7.50;96.40;;;;;;5033167;28;20539;-75
2021/12/20 03:29:15;;;;;;;110.43;98.75;;;7.60;96.40;;;;;;5031399;28;20089;-75
2021/12/20 03:31:42;;;;;;;110.57;98.70;;;7.50;96.40;;;;;;5031580;28;20586;-75
2021/12/20 03:34:10;;;;;;;109.85;98.18;;;7.50;96.40;;;;;;5031343;28;20508;-75
2021/12/20 03:36:37;;;;;;;111.40;99.25;;;7.50;96.40;;;;;;5034517;28;20077;-75
2021/12/20 03:39:06;;;;;;;110.03;98.65;;;7.60;96.40;;;;;;5051315;28;20058;-75
2021/12/20 03:41:34;;;;;;;110.32;98.40;;;7.50;96.30;;;;;;5034981;28;20045;-75
2021/12/20 03:44:02;;;;;;;110.97;98.88;;;7.50;96.30;;;;;;5036115;28;20535;-75
2021/12/20 03:46:29;;;;;;;110.82;99.05;;;7.50;96.30;;;;;;5034372;28;20500;-75
2021/12/20 03:48:56;;;;;;;110.47;99.10;;;7.50;96.30;;;;;;5050889;28;20061;-75
2021/12/20 03:51:23;;;;;;;110.30;98.70;;;7.50;96.40;;;;;;5034876;28;20054;-75
2021/12/20 03:53:50;;;;;;;111.47;99.63;;;7.50;96.20;;;;;;5036005;28;20125;-75
2021/12/20 03:56:17;;;;;;;110.13;98.70;;;7.50;96.20;;;;;;5034417;28;20076;-74
2021/12/20 03:58:44;;;;;;;109.57;98.07;;;7.50;96.20;;;;;;5050880;28;20080;-75
2021/12/20 04:01:13;;;;;;;109.40;98.10;;;7.50;96.20;;;;;;5034404;28;20061;-75
2021/12/20 04:03:41;;;;;;;108.25;97.07;;;7.50;96.10;;;;;;5035890;28;20132;-75
2021/12/20 04:06:11;;;;;;;109.80;98.32;;;7.50;96.20;;;;;;5050913;28;20142;-75
2021/12/20 04:08:39;;;;;;;109.53;97.88;;;7.40;96.20;;;;;;5033993;28;20124;-74
2021/12/20 04:11:07;;;;;;;109.78;98.53;;;7.40;96.30;;;;;;5034018;28;20104;-74
2021/12/20 04:13:34;;;;;;;111.68;99.80;;;7.40;96.20;;;;;;5034371;28;20420;-74
2021/12/20 04:16:01;;;;;;;111.93;100.50;;;7.40;96.30;;;;;;5035682;28;20058;-75
2021/12/20 04:18:31;;;;;;;111.82;100.28;;;7.30;96.30;;;;;;5035497;28;20056;-75
2021/12/20 04:20:58;;;;;;;112.03;100.13;;;7.40;96.30;;;;;;5034588;28;20144;-75
2021/12/20 04:23:25;;;;;;;112.22;100.35;;;7.40;96.30;;;;;;5034296;28;20058;-75
2021/12/20 04:25:52;;;;;;;110.57;99.10;;;7.40;96.30;;;;;;5033912;28;20046;-75
2021/12/20 04:28:19;;;;;;;110.60;99.13;;;7.40;96.30;;;;;;5035341;28;20057;-75
2021/12/20 04:30:46;;;;;;;109.20;98.07;;;7.40;96.20;;;;;;5035592;28;20128;-75
2021/12/20 04:33:13;;;;;;;109.45;98.10;;;7.40;96.20;;;;;;5033777;28;20042;-74
2021/12/20 04:35:41;;;;;;;111.93;100.10;;;7.40;96.20;;;;;;5034252;28;20064;-75
2021/12/20 04:38:09;;;;;;;108.60;97.43;;;7.50;96.20;;;;;;5034893;28;20538;-74
2021/12/20 04:40:37;;;;;;;110.47;98.68;;;7.40;96.20;;;;;;5035219;28;20122;-75
2021/12/20 04:43:05;;;;;;;109.30;98.20;;;7.40;96.20;;;;;;5033752;28;20046;-75
2021/12/20 04:45:33;;;;;;;108.85;97.93;;;7.40;96.10;;;;;;5017264;28;20157;-75
2021/12/20 04:48:01;;;;;;;109.38;97.80;;;7.40;96.10;;;;;;5032966;28;20129;-75
2021/12/20 04:50:29;;;;;;;109.13;97.53;;;7.40;96.10;;;;;;5035068;28;20073;-75
2021/12/20 04:52:58;;;;;;;109.82;98.45;;;7.30;96.00;;;;;;5033819;28;20590;-75
2021/12/20 04:55:26;;;;;;;111.28;99.20;;;7.30;95.90;;;;;;5033486;28;20054;-75
2021/12/20 04:57:53;;;;;;;111.85;100.03;;;7.30;96.00;;;;;;5033453;28;20052;-74
2021/12/20 05:00:23;;;;;;;109.93;98.68;;;7.30;96.00;;;;;;5034862;28;20075;-75
2021/12/20 05:02:50;;;;;;;111.40;99.93;;;7.30;96.00;;;;;;5035097;28;20054;-75
2021/12/20 05:05:18;;;;;;;108.88;97.65;;;7.30;96.00;;;;;;5033392;28;20079;-75
2021/12/20 05:07:46;;;;;;;109.80;98.40;;;7.20;95.90;;;;;;5033267;28;20056;-75
2021/12/20 05:10:25;;;;;;;109.97;98.65;;;7.20;96.00;;;;;;5033337;28;20080;-75
2021/12/20 05:12:53;;;;;;;110.28;98.30;;;7.20;95.90;;;;;;5016704;28;20622;-74
2021/12/20 05:15:20;;;;;;;108.35;97.43;;;7.20;96.00;;;;;;5033245;28;20046;-74
2021/12/20 05:17:47;;;;;;;109.32;98.03;;;7.20;96.00;;;;;;5033020;28;20060;-75
2021/12/20 05:20:14;;;;;;;109.72;98.43;;;7.20;96.10;;;;;;5034643;28;20050;-75
2021/12/20 05:22:41;;;;;;;108.97;97.90;;;7.20;96.00;;;;;;5034598;28;20049;-75
2021/12/20 05:25:08;;;;;;;109.07;97.82;;;7.20;96.00;;;;;;5034559;28;20054;-74
2021/12/20 05:27:37;;;;;;;111.15;99.20;;;7.20;95.90;;;;;;5032774;28;20565;-75
2021/12/20 05:30:05;;;;;;;107.63;96.80;;;7.20;95.90;;;;;;5034438;28;20060;-74
2021/12/20 05:32:32;;;;;;;107.55;96.93;;;7.20;95.90;;;;;;5033032;28;20038;-75
2021/12/20 05:34:59;;;;;;;108.55;97.90;;;7.20;95.90;;;;;;5032904;28;20054;-75
2021/12/20 05:37:25;;;;;;;107.72;96.72;;;7.10;95.70;;;;;;5033794;28;20083;-75
2021/12/20 05:39:52;;;;;;;107.60;96.63;;;7.10;95.70;;;;;;5033141;28;20497;-75
2021/12/20 05:42:19;;;;;;;111.40;99.68;;;7.10;95.80;;;;;;5033008;28;20053;-74
2021/12/20 05:44:50;;;;;;;108.13;97.40;;;7.00;95.50;;;;;;5032685;28;20058;-74
2021/12/20 05:47:18;;;;;;;108.55;97.78;;;7.00;95.50;;;;;;5049044;28;20520;-74
2021/12/20 05:49:44;;;;;;;108.90;97.85;;;7.00;95.50;;;;;;5034540;28;20085;-74
2021/12/20 05:52:12;;;;;;;108.25;97.00;;;6.90;95.50;;;;;;5033000;28;20050;-75
2021/12/20 05:54:39;;;;;;;110.03;98.88;;;6.90;95.40;;;;;;5032683;28;20125;-74
2021/12/20 05:57:06;;;;;;;108.90;98.05;;;6.80;95.40;;;;;;5034022;28;20081;-74
2021/12/20 05:59:34;;;;;;;108.97;97.88;;;6.70;95.40;;;;;;5031257;28;20140;-75
2021/12/20 06:02:02;;;;;;;107.20;96.32;;;6.70;95.50;;;;;;5032595;28;20133;-74
2021/12/20 06:04:29;;;;;;;108.18;97.28;;;6.70;95.60;;;;;;5032601;28;20080;-74
2021/12/20 06:06:56;;;;;;;110.68;99.95;;;6.70;95.50;;;;;;5048843;28;20148;-74
2021/12/20 06:09:24;;;;;;;110.85;99.80;;;6.70;95.50;;;;;;5033707;28;20060;-74
2021/12/20 06:11:51;;;;;;;111.15;100.40;;;6.60;95.40;;;;;;5032455;28;20058;-74
2021/12/20 06:14:18;;;;;;;111.93;101.07;;;6.60;95.30;;;;;;5032396;28;20054;-74
2021/12/20 06:16:45;;;;;;;111.07;100.05;;;6.60;95.20;;;;;;5032658;28;20105;-74
2021/12/20 06:19:13;;;;;;;;;;;6.50;95.20;;;;;;5032326;28;20089;-74
2021/12/20 06:21:40;;;;;;;110.80;99.80;;;6.50;95.40;;;;;;5033842;28;19930;-74
2021/12/20 06:24:07;;;;;;;;;;;6.40;95.40;;;;;;5032702;28;20058;-74
2021/12/20 06:26:34;;;;;;;109.45;98.28;;;6.30;95.50;;;;;;5032532;28;20458;-74
2021/12/20 06:29:01;;;;;;;110.85;99.88;;;6.30;95.50;;;;;;5033461;28;20140;-74
2021/12/20 06:31:27;;;;;;;;;;;6.30;95.60;;;;;;5032597;28;20532;-74
2021/12/20 06:33:54;;;;;;;110.00;98.63;;;6.30;96.00;;;;;;5032388;28;20425;-74
2021/12/20 06:36:25;;;;;;;;;;;6.30;95.70;;;;;;5032776;28;20050;-74
2021/12/20 06:38:54;;;;;;;109.55;98.45;;;6.30;95.90;;;;;;5031933;28;19979;-74
2021/12/20 06:41:21;;;;;;;110.65;99.55;;;6.30;95.60;;;;;;5031948;28;20101;-74
2021/12/20 06:43:48;;;;;;;108.97;98.15;;;6.30;95.50;;;;;;5033398;28;20054;-74
2021/12/20 06:46:16;;;;;;;111.05;100.10;;;6.30;95.20;;;;;;5015398;28;20057;-74
2021/12/20 06:48:43;;;;;;;108.93;98.38;;;6.20;95.00;;;;;;5033232;28;20054;-74
2021/12/20 06:51:09;;;;;;;;;;;6.20;95.10;;;;;;5032621;28;20268;-74
2021/12/20 06:53:38;;;;;;;110.30;99.07;;;6.10;95.60;;;;;;5033780;28;19925;-74
2021/12/20 06:56:05;;;;;;;110.38;99.57;;;6.10;95.40;;;;;;5031746;28;20134;-74
2021/12/20 06:58:32;;;;;;;110.70;99.82;;;6.10;95.40;;;;;;5031788;28;20081;-74
2021/12/20 07:00:59;;;;;;;;;;;6.10;95.40;;;;;;5032627;28;20693;-74
2021/12/20 07:03:26;;;;;;;111.90;100.65;;;6.10;95.40;;;;;;5031893;28;19995;-74
2021/12/20 07:05:53;;;;;;;;;;;6.00;95.20;;;;;;5032119;28;20060;-75
2021/12/20 07:08:20;;;;;;;113.18;101.55;;;6.00;95.20;;;;;;5047822;28;20016;-74
2021/12/20 07:10:48;;;;;;;;;;;5.90;95.20;;;;;;5030776;28;20073;-74
2021/12/20 07:13:15;;;;;;;111.35;100.15;;;5.90;95.50;;;;;;5048254;28;19926;-74
2021/12/20 07:15:42;;;;;;;111.65;100.25;;;5.90;95.40;;;;;;5031391;28;20587;-74
2021/12/20 07:18:09;;;;;;;111.25;100.07;;;5.90;95.30;;;;;;5031492;28;20054;-75
2021/12/20 07:20:36;;;;;;;;;;;5.90;95.10;;;;;;5015298;28;20050;-74
2021/12/20 07:23:04;;;;;;;111.43;100.43;;;5.90;95.40;;;;;;5031557;28;19925;-74
2021/12/20 07:25:31;;;;;;;110.18;99.35;;;5.80;95.30;;;;;;5032483;28;20053;-74
2021/12/20 07:27:59;;;;;;;;;;;5.80;95.10;;;;;;5031778;28;20089;-74
2021/12/20 07:30:26;;;;;;;109.13;98.53;;;5.80;94.90;;;;;;5031690;28;19929;-74
2021/12/20 07:32:53;;;;;;;110.40;99.60;;;5.70;94.80;;;;;;5031086;28;20152;-74
2021/12/20 07:35:22;;;;;;;;;;;5.70;94.90;;;;;;5031836;28;20145;-74
2021/12/20 07:37:50;;;;;;;110.43;99.43;;;5.60;95.00;;;;;;5032491;28;20062;-74
2021/12/20 07:40:17;;;;;;;112.82;101.82;;;5.50;94.80;;;;;;5014442;28;20053;-74
2021/12/20 07:42:43;;;;;;;;;;;5.40;94.80;;;;;;5031309;28;20057;-74
2021/12/20 07:45:12;;;;;;;111.20;100.10;;;5.40;95.00;;;;;;5047387;28;19925;-74
2021/12/20 07:47:39;;;;;;;110.72;100.03;;;5.30;95.00;;;;;;5031487;28;20082;-74
2021/12/20 07:50:07;;;;;;;110.10;99.40;;;5.30;95.30;;;;;;5028238;28;20448;-74
2021/12/20 07:52:35;;;;;;;110.85;100.22;;;5.20;95.10;;;;;;5030009;28;20133;-74
2021/12/20 07:55:02;;;;;;;111.75;100.95;;;5.20;95.20;;;;;;5033120;28;20099;-74
2021/12/20 07:57:28;;;;;;;;;;;5.20;95.30;;;;;;5049619;28;20140;-74
2021/12/20 07:59:55;;;;;;;109.80;99.00;;;5.20;95.80;;;;;;5050515;28;19929;-74
2021/12/20 08:02:24;;;;;;;111.15;100.20;;;5.20;95.50;;;;;;5050637;28;20046;-74
2021/12/20 08:04:51;;;;;;;110.28;99.63;;;5.20;95.30;;;;;;5050481;28;20051;-74
2021/12/20 08:07:21;;;;;;;111.22;100.32;;;5.10;95.20;;;;;;5050427;28;20049;-74
2021/12/20 08:09:49;;;;;;;112.22;100.70;;;5.10;95.20;;;;;;5051828;28;20059;-74
2021/12/20 08:12:17;;;;;;;111.40;100.40;;;5.10;95.30;;;;;;5050082;28;20049;-74
2021/12/20 08:14:44;;;;;;;110.18;99.30;;;5.10;95.30;;;;;;5046970;28;20334;-75
2021/12/20 08:17:11;;;;;;;109.20;98.32;;;5.10;95.50;;;;;;4986103;28;20141;-76
2021/12/20 08:19:40;;;;;;;;;;;5.10;95.40;;;;;;5054215;28;20133;-74
2021/12/20 08:22:07;;;;;;;111.03;99.93;;;5.10;95.80;;;;;;5017846;28;19925;-75
2021/12/20 08:24:34;;;;;;;111.32;100.13;;;5.10;95.50;;;;;;5032126;28;20061;-74
2021/12/20 08:27:01;;;;;;;109.35;98.47;;;5.10;95.50;;;;;;5035626;28;20046;-74
2021/12/20 08:29:29;;;;;;;108.78;98.20;;;5.10;95.50;;;;;;5037088;28;20054;-75
2021/12/20 08:32:01;;;;;;;110.22;99.00;;;5.10;95.60;;;;;;5033369;28;20049;-74
2021/12/20 08:34:28;;;;;;;111.65;100.70;;;5.20;95.40;;;;;;5031170;28;20057;-75
2021/12/20 08:36:57;;;;;;;117.82;106.13;;;5.20;95.30;;;;;;5032928;28;20133;-75
2021/12/20 08:39:24;;;;;;;112.97;101.75;;;5.20;95.40;;;;;;5063793;28;20135;-75
2021/12/20 08:41:51;;;;;;;110.85;99.75;;;5.20;95.30;;;;;;5030296;28;20087;-74
2021/12/20 08:44:18;;;;;;;112.55;101.15;;;5.10;95.30;;;;;;5040092;28;20898;-74
2021/12/20 08:46:45;;;;;;;110.18;99.03;;;5.10;95.30;;;;;;5031769;28;20058;-75
2021/12/20 08:49:12;;;;;;;109.97;98.95;;;5.00;95.30;;;;;;5031860;28;20470;-75
2021/12/20 08:51:39;;;;;;;;;;;5.00;95.40;;;;;;5016771;28;20084;-75
2021/12/20 08:54:07;;;;;;;109.32;98.53;;;5.00;95.70;;;;;;5033215;28;19926;-75
2021/12/20 08:56:34;;;;;;;108.55;97.85;;;4.90;95.60;;;;;;5033100;28;20078;-75
2021/12/20 08:59:01;;;;;;;;;;;5.00;95.60;;;;;;5032961;28;20057;-75
2021/12/20 09:01:28;;;;;;;109.15;98.30;;;5.00;95.70;;;;;;5034811;28;19925;-77
2021/12/20 09:03:57;;;;;;;110.30;99.57;;;4.90;95.60;;;;;;5034829;28;20534;-76
2021/12/20 09:06:25;;;;;;;108.57;98.07;;;4.90;95.60;;;;;;5030371;28;20590;-77
2021/12/20 09:08:54;;;;;;;107.05;96.30;;;4.90;95.60;;;;;;5029723;28;20046;-75
2021/12/20 09:11:22;;;;;;;108.20;97.63;;;4.90;95.70;;;;;;5031214;28;20112;-75
2021/12/20 09:13:49;;;;;;;107.70;96.82;;;4.90;95.70;;;;;;5032274;28;20054;-74
2021/12/20 09:16:16;;;;;;;124.38;111.65;;;4.90;95.70;;;;;;5032651;28;20064;-74
2021/12/20 09:18:43;;;;;;;112.13;100.40;;;4.90;95.70;;;;;;5031201;28;20516;-76
2021/12/20 09:21:11;;;;;;;111.47;100.38;;;4.90;95.80;;;;;;5032299;28;20050;-75
2021/12/20 09:23:38;;;;;;;111.57;100.68;;;4.90;95.80;;;;;;5032761;28;20054;-74
2021/12/20 09:26:05;;;;;;;;;;;4.90;95.90;;;;;;5032816;28;20092;-75
2021/12/20 09:28:34;;;;;;;110.95;99.45;;;4.90;95.90;;;;;;5033096;28;19955;-75
2021/12/20 09:31:01;;;;;;;110.70;99.63;;;4.80;95.90;;;;;;5032806;28;20140;-75
2021/12/20 09:33:28;;;;;;;110.18;99.07;;;4.80;96.00;;;;;;5033573;28;20595;-74
2021/12/20 09:35:55;;;;;;;110.07;99.10;;;4.80;96.10;;;;;;5032272;28;20053;-75
2021/12/20 09:38:22;;;;;;;109.90;98.68;;;4.80;96.10;;;;;;5031483;28;20046;-74
2021/12/20 09:41:14;;;;;;;;;;;4.80;96.20;;;;;;5034407;28;20057;-74
2021/12/20 09:43:46;;;;;;;112.22;100.63;;;4.80;96.40;;;;;;5047435;28;19925;-74
2021/12/20 09:46:14;;;;;;;109.65;98.50;;;4.80;96.40;;;;;;5039112;28;20054;-73
2021/12/20 09:48:44;;;;;;;111.72;100.18;;;4.80;96.40;;;;;;5028316;28;20048;-76
2021/12/20 09:51:11;;;;;;;111.15;100.15;;;4.90;96.50;;;;;;5038087;28;20060;-76
2021/12/20 09:53:38;;;;;;;115.88;103.50;;;4.90;96.60;;;;;;5035786;28;20145;-76
2021/12/20 09:56:05;;;;;;;;;;;4.90;96.70;;;;;;5032419;28;20057;-77
2021/12/20 09:58:36;;;;;;;112.38;100.45;;;4.90;96.90;;;;;;5015739;28;19936;-77
2021/12/20 10:01:07;;;;;;;112.90;100.80;;;5.00;96.90;;;;;;5015956;28;20060;-77
2021/12/20 10:03:35;;;;;;;116.47;103.32;;;5.10;97.00;;;;;;5030670;28;20579;-77
2021/12/20 10:06:02;;;;;;;112.40;100.43;;;5.10;97.00;;;;;;5027602;28;20053;-76
2021/12/20 10:08:33;;;;;;;114.72;102.55;;;5.10;97.10;;;;;;5028633;28;20049;-76
2021/12/20 10:11:03;;;;;;;114.53;102.05;;;5.20;97.20;;;;;;5032243;28;20562;-77
2021/12/20 10:13:32;;;;;;;112.43;100.45;;;5.20;97.20;;;;;;5033578;28;20085;-78
2021/12/20 10:16:01;;;;;;;113.97;101.97;;;5.30;97.40;;;;;;5014735;28;20060;-76
2021/12/20 10:18:34;;;;;;;115.85;102.10;;;5.30;97.40;;;;;;5033678;28;20096;-75
2021/12/20 10:21:04;;;;;;;118.22;103.60;;;5.40;97.50;;;;;;5032582;28;20136;-77
2021/12/20 10:23:33;;;;;;;113.63;100.68;;;5.40;97.70;;;;;;5030890;28;20052;-75
2021/12/20 10:26:01;;;;;;;112.68;100.85;;;5.50;97.70;;;;;;5014438;28;20510;-76
2021/12/20 10:28:33;;;;;;;116.18;103.75;;;5.50;97.70;;;;;;5030423;28;20054;-78
2021/12/20 10:31:03;;;;;;;118.35;105.65;;;5.60;97.70;;;;;;5011503;28;20054;-78
2021/12/20 10:33:31;;;;;;;118.68;104.97;;;5.70;97.80;;;;;;5030244;28;20046;-77
2021/12/20 10:35:59;;;;;;;115.80;103.78;;;5.80;97.90;;;;;;5028921;28;20129;-77
2021/12/20 10:38:32;;;;;;;115.95;103.35;;;5.80;97.90;;;;;;5029740;28;20495;-77
2021/12/20 10:41:03;;;;;;;115.70;103.53;;;5.90;98.00;;;;;;5028629;28;20046;-77
2021/12/20 10:43:35;;;;;;;117.88;105.30;;;5.90;98.00;;;;;;5031440;28;20054;-77
2021/12/20 10:46:10;;;;;;;117.05;102.72;;;6.00;98.10;;;;;;5015454;28;20049;-77
2021/12/20 10:48:39;;;;;;;114.60;102.65;;;6.10;98.10;;;;;;5030966;28;20615;-78
2021/12/20 10:51:15;;;;;;;115.28;103.07;;;6.20;98.00;;;;;;5046710;28;20060;-78
2021/12/20 10:53:46;;;;;;;116.32;103.93;;;6.30;98.00;;;;;;5040603;28;20165;-76
2021/12/20 10:56:13;;;;;;;118.43;105.32;;;6.30;97.90;;;;;;5034666;28;20064;-76
2021/12/20 10:58:41;;;;;;;113.90;101.93;;;6.40;97.80;;;;;;5046130;28;20531;-77
2021/12/20 11:01:24;;;;;;;114.10;102.25;;;6.50;97.90;;;;;;5046703;28;20134;-78
2021/12/20 11:04:11;;;;;;;115.15;103.30;;;6.60;97.80;;;;;;5042192;28;20508;-83
2021/12/20 11:06:55;;;;;;;114.07;102.32;;;6.70;97.60;;;;;;5030037;28;20582;-82
2021/12/20 11:09:23;;;;;;;113.97;101.85;;;6.70;97.60;;;;;;5014402;28;20050;-83
2021/12/20 11:11:53;;;;;;;115.78;103.57;;;6.90;97.50;;;;;;5029512;28;20054;-82
2021/12/20 11:14:23;;;;;;;115.22;103.55;;;6.90;97.40;;;;;;5012017;28;20498;-84
2021/12/20 11:16:54;;;;;;;114.05;102.20;;;7.00;97.20;;;;;;5014117;28;20060;-83
2021/12/20 11:19:25;;;;;;;114.10;101.97;;;7.10;97.10;;;;;;5033685;28;20479;-81
2021/12/20 11:21:58;;;;;;;111.70;100.55;;;7.20;96.90;;;;;;5031837;28;20050;-77
2021/12/20 11:24:29;;;;;;;112.68;101.38;;;7.30;96.70;;;;;;5034315;28;20065;-78
2021/12/20 11:26:57;;;;;;;118.05;105.97;;;7.40;96.50;;;;;;5043954;28;20058;-78
2021/12/20 11:29:24;;;;;;;112.72;101.47;;;7.40;96.40;;;;;;5030359;28;20046;-78
2021/12/20 11:31:52;;;;;;;112.60;101.60;;;7.50;96.20;;;;;;5030428;28;20057;-79
2021/12/20 11:34:19;;;;;;;110.25;99.22;;;7.60;96.10;;;;;;5026432;28;20124;-79
2021/12/20 11:36:49;;;;;;;111.57;100.85;;;7.60;95.80;;;;;;5016257;28;20070;-84
2021/12/20 11:39:16;;;;;;;112.88;102.05;;;7.70;95.60;;;;;;5008822;28;20050;-85
2021/12/20 11:41:45;;;;;;;110.57;99.78;;;7.80;95.50;;;;;;5014109;28;20053;-86
2021/12/20 11:44:15;;;;;;;112.35;101.38;;;7.80;95.40;;;;;;5013928;28;20527;-78
2021/12/20 11:47:09;;;;;;;110.82;99.68;;;7.90;95.20;;;;;;5030170;28;20538;-83
2021/12/20 11:49:37;;;;;;;113.10;102.15;;;8.00;95.00;;;;;;5061972;28;20062;-81
2021/12/20 11:52:13;;;;;;;112.00;101.30;;;8.10;95.00;;;;;;5061390;28;20137;-79
2021/12/20 11:54:46;;;;;;;113.07;102.05;;;8.20;94.70;;;;;;5033825;28;20081;-79
2021/12/20 11:57:33;;;;;;;110.93;99.75;;;8.30;94.60;;;;;;5029547;28;20089;-83
2021/12/20 12:00:02;;;;;;;109.80;99.03;;;8.40;94.40;;;;;;5035220;28;20625;-84
2021/12/20 12:02:43;;;;;;;112.38;101.15;;;8.50;94.40;;;;;;5034350;28;20050;-84
2021/12/20 12:05:12;;;;;;;108.82;98.00;;;8.50;94.00;;;;;;5031374;28;20104;-84
2021/12/20 12:07:41;;;;;;;110.38;99.65;;;8.60;93.90;;;;;;5035898;28;20129;-82
2021/12/20 12:10:11;;;;;;;113.28;102.57;;;8.70;93.70;;;;;;5037863;28;20096;-83
2021/12/20 12:12:42;;;;;;;112.07;101.43;;;8.70;93.50;;;;;;5033377;28;20133;-78
2021/12/20 12:15:16;;;;;;;111.07;100.50;;;8.80;93.40;;;;;;5029319;28;20046;-81
2021/12/20 12:17:51;;;;;;;112.25;101.57;;;8.90;93.00;;;;;;5023083;28;20155;-80
2021/12/20 12:20:53;;;;;;;111.00;100.50;;;9.00;92.40;;;;;;5034086;28;20129;-77
2021/12/20 12:23:23;;;;;;;112.05;101.38;;;9.00;92.50;;;;;;4938035;28;20052;-82
2021/12/20 12:26:06;;;;;;;113.00;102.35;;;9.10;92.00;;;;;;4937545;28;20064;-91
2021/12/20 12:28:54;;;;;;;108.05;97.53;;;9.10;91.40;;;;;;4975658;28;20488;-82
2021/12/20 12:31:21;;;;;;;109.22;98.88;;;9.20;90.80;;;;;;5035811;28;20515;-84
2021/12/20 12:33:48;;;;;;;109.95;99.55;;;9.20;90.80;;;;;;5027393;28;20144;-79
2021/12/20 12:36:30;;;;;;;109.00;98.70;;;9.30;90.80;;;;;;5029446;28;20141;-80
2021/12/20 12:39:07;;;;;;;109.45;99.05;;;9.30;89.70;;;;;;5031547;28;20050;-79
2021/12/20 12:41:44;;;;;;;111.95;101.32;;;9.40;87.30;;;;;;5047764;28;20054;-78
2021/12/20 12:44:24;;;;;;;111.78;101.15;;;9.30;88.40;;;;;;5036623;28;20056;-82
2021/12/20 12:47:03;;;;;;;108.90;98.32;;;9.40;89.40;;;;;;5033371;28;20057;-78
2021/12/20 12:49:49;;;;;;;111.07;100.75;;;9.40;89.00;;;;;;5026542;28;20112;-78